Time;durP1;ratioP1;P1;durP2;ratioP2;P2;SDS_P1;SDS_P2;PMS_P1;PMS_P2;Temp;Humidity;BMP_temperature;BMP_pressure;BME280_temperature;BME280_humidity;BME280_pressure;Samples;Min_cycle;Max_cycle;Signal;HPM_P1;HPM_P2
2022/01/14 00:01:51;;;;;;;41.30;18.63;;;1.60;95.80;;;;;;5057970;28;20482;-48
2022/01/14 00:04:18;;;;;;;31.30;18.07;;;1.60;95.90;;;;;;5050559;28;20478;-48
2022/01/14 00:06:46;;;;;;;31.70;17.17;;;1.60;96.10;;;;;;5046412;28;21494;-49
2022/01/14 00:09:14;;;;;;;38.80;19.10;;;1.60;95.90;;;;;;5059260;28;21067;-48
2022/01/14 00:11:47;;;;;;;42.87;20.23;;;1.60;95.80;;;;;;5051458;28;20497;-48
2022/01/14 00:14:23;;;;;;;52.87;21.60;;;1.60;95.60;;;;;;5052721;28;20474;-48
2022/01/14 00:16:50;;;;;;;39.83;19.27;;;1.60;95.50;;;;;;5041516;28;20473;-49
2022/01/14 00:19:17;;;;;;;35.70;18.93;;;1.70;95.50;;;;;;5047405;28;21023;-48
2022/01/14 00:21:46;;;;;;;63.17;22.17;;;1.60;95.50;;;;;;5042160;28;21339;-49
2022/01/14 00:24:24;;;;;;;36.27;17.67;;;1.70;95.50;;;;;;5049171;28;20509;-48
2022/01/14 00:32:27;;;;;;;55.20;21.60;;;1.60;95.70;;;;;;5068578;28;20489;-48
2022/01/14 00:34:54;;;;;;;39.50;19.67;;;1.50;95.70;;;;;;5052486;28;21012;-48
2022/01/14 00:37:22;;;;;;;38.67;21.30;;;1.60;95.70;;;;;;5059644;28;20478;-48
2022/01/14 00:39:49;;;;;;;50.63;20.10;;;1.50;95.70;;;;;;5060494;28;20473;-48
2022/01/14 00:42:16;;;;;;;32.47;20.00;;;1.40;95.70;;;;;;5059478;28;20482;-48
2022/01/14 00:44:43;;;;;;;33.70;19.67;;;1.40;96.10;;;;;;5060124;28;20488;-49
2022/01/14 00:47:10;;;;;;;32.20;19.00;;;1.30;96.10;;;;;;5056597;28;20486;-48
2022/01/14 00:49:36;;;;;;;33.10;17.93;;;1.30;96.30;;;;;;5056557;28;20555;-48
2022/01/14 00:52:03;;;;;;;29.50;17.37;;;1.20;96.30;;;;;;5061789;28;20500;-48
2022/01/14 00:54:32;;;;;;;29.80;18.60;;;1.20;96.30;;;;;;5062334;28;20475;-49
2022/01/14 00:57:14;;;;;;;32.97;19.43;;;1.20;96.30;;;;;;5050363;28;20481;-50
2022/01/14 00:59:40;;;;;;;36.17;18.40;;;1.20;96.30;;;;;;5080826;27;20479;-48
2022/01/14 01:02:07;;;;;;;31.30;17.93;;;1.20;96.10;;;;;;5065504;28;20503;-48
2022/01/14 01:04:37;;;;;;;33.07;19.83;;;1.20;96.10;;;;;;5059325;28;20273;-49
2022/01/14 01:07:09;;;;;;;36.90;19.20;;;1.20;96.20;;;;;;5061432;28;20477;-49
2022/01/14 01:09:40;;;;;;;38.57;20.50;;;1.20;96.20;;;;;;5056774;28;20478;-49
2022/01/14 01:12:12;;;;;;;31.03;19.07;;;1.30;96.20;;;;;;5058252;27;20492;-48
2022/01/14 01:14:46;;;;;;;43.33;21.87;;;1.30;96.10;;;;;;5072117;28;20472;-48
2022/01/14 01:17:13;;;;;;;32.93;19.83;;;1.40;96.00;;;;;;5050693;28;20513;-49
2022/01/14 01:19:41;;;;;;;36.40;19.50;;;1.40;96.20;;;;;;5058459;28;20518;-49
2022/01/14 01:22:08;;;;;;;33.10;18.37;;;1.40;96.00;;;;;;5069903;28;20474;-48
2022/01/14 01:24:36;;;;;;;44.13;18.67;;;1.40;95.70;;;;;;5057897;28;20823;-48
2022/01/14 01:27:07;;;;;;;37.03;19.40;;;1.40;95.60;;;;;;5057609;28;20577;-48
2022/01/14 01:29:50;;;;;;;43.67;19.40;;;1.40;95.60;;;;;;5060201;28;21032;-48
2022/01/14 01:32:17;;;;;;;33.20;18.70;;;1.40;95.60;;;;;;5030966;27;20484;-48
2022/01/14 01:34:44;;;;;;;35.37;19.47;;;1.40;95.60;;;;;;5124328;27;20477;-49
2022/01/14 01:37:11;;;;;;;37.90;18.40;;;;;;;;;;5061573;28;20516;-48
2022/01/14 01:39:39;;;;;;;38.13;19.50;;;1.40;95.50;;;;;;5056929;28;20539;-48
2022/01/14 01:42:08;;;;;;;39.97;18.20;;;1.40;95.50;;;;;;5068855;28;20477;-48
2022/01/14 01:44:37;;;;;;;32.13;17.40;;;1.50;95.50;;;;;;5060850;28;20924;-48
2022/01/14 01:47:05;;;;;;;33.53;17.83;;;1.50;95.40;;;;;;5057572;28;20491;-48
2022/01/14 01:49:34;;;;;;;31.73;17.53;;;1.40;95.20;;;;;;5055844;28;20497;-48
2022/01/14 01:52:02;;;;;;;35.07;19.20;;;1.40;95.10;;;;;;5053467;27;20486;-48
2022/01/14 01:54:29;;;;;;;33.03;19.10;;;1.30;94.90;;;;;;5068030;28;21040;-49
2022/01/14 01:56:58;;;;;;;32.77;19.00;;;1.30;95.10;;;;;;5048500;28;20478;-48
2022/01/14 01:59:26;;;;;;;33.33;18.60;;;1.30;95.10;;;;;;5055295;28;20493;-48
2022/01/14 02:01:55;;;;;;;33.87;18.50;;;1.20;94.80;;;;;;5055683;28;20490;-48
2022/01/14 02:04:22;;;;;;;33.37;16.77;;;1.20;95.00;;;;;;5058999;28;20486;-47
2022/01/14 02:06:51;;;;;;;36.53;16.67;;;1.20;95.10;;;;;;5046084;28;20506;-48
2022/01/14 02:09:18;;;;;;;30.67;16.10;;;1.20;95.10;;;;;;5063110;28;20489;-48
2022/01/14 02:11:44;;;;;;;29.70;17.07;;;1.20;95.10;;;;;;5059850;28;20722;-48
2022/01/14 02:14:27;;;;;;;31.20;18.20;;;1.10;94.80;;;;;;5052504;28;20967;-48
2022/01/14 02:17:29;;;;;;;36.67;19.00;;;1.10;95.00;;;;;;5062146;28;20479;-48
2022/01/14 02:22:51;;;;;;;25.93;16.37;;;0.90;95.60;;;;;;5048314;28;20745;-48
2022/01/14 02:25:28;;;;;;;30.17;17.00;;;0.90;95.70;;;;;;5063823;28;20557;-48
2022/01/14 02:27:56;;;;;;;31.20;16.87;;;1.00;95.90;;;;;;5056083;28;20490;-48
2022/01/14 02:30:23;;;;;;;35.10;18.60;;;0.90;95.80;;;;;;5060040;28;20550;-48
2022/01/14 02:32:50;;;;;;;32.63;18.40;;;0.90;95.60;;;;;;5055646;28;20498;-48
2022/01/14 02:35:18;;;;;;;35.10;20.23;;;0.90;95.80;;;;;;5054662;28;20798;-48
2022/01/14 02:37:45;;;;;;;31.67;17.10;;;0.90;96.00;;;;;;5056192;28;20486;-49
2022/01/14 02:40:13;;;;;;;36.13;16.73;;;0.90;95.60;;;;;;5057141;28;20487;-48
2022/01/14 02:42:40;;;;;;;31.87;18.73;;;0.90;95.90;;;;;;5061561;28;20482;-49
2022/01/14 02:45:10;;;;;;;29.67;17.73;;;1.00;96.10;;;;;;5059063;28;20858;-48
2022/01/14 02:47:37;;;;;;;32.77;16.73;;;0.90;95.10;;;;;;5048960;28;20489;-48
2022/01/14 02:50:06;;;;;;;29.93;16.30;;;0.90;95.40;;;;;;5059184;28;20472;-48
2022/01/14 02:52:43;;;;;;;37.77;19.10;;;0.70;95.50;;;;;;5055182;28;20827;-48
2022/01/14 02:55:16;;;;;;;29.90;15.23;;;0.40;95.50;;;;;;5057732;28;20566;-48
2022/01/14 02:57:44;;;;;;;33.70;14.00;;;0.40;95.80;;;;;;5051959;28;20507;-49
2022/01/14 03:00:12;;;;;;;32.07;14.97;;;0.50;95.40;;;;;;5042884;28;20492;-48
2022/01/14 03:02:43;;;;;;;27.00;16.00;;;0.40;95.60;;;;;;5072241;28;20491;-48
2022/01/14 03:05:10;;;;;;;26.70;15.57;;;0.40;95.40;;;;;;5033234;28;20485;-48
2022/01/14 03:07:39;;;;;;;30.30;17.50;;;0.40;95.40;;;;;;5065438;28;21174;-48
2022/01/14 03:10:07;;;;;;;24.77;14.73;;;0.40;95.60;;;;;;5054597;28;20482;-48
2022/01/14 03:12:34;;;;;;;28.43;15.80;;;0.40;96.00;;;;;;5053491;28;20494;-48
2022/01/14 03:15:01;;;;;;;37.57;17.87;;;0.60;96.00;;;;;;5061126;27;20494;-49
2022/01/14 03:17:29;;;;;;;37.87;17.07;;;0.60;96.20;;;;;;5093057;27;20486;-48
2022/01/14 03:19:57;;;;;;;27.17;17.20;;;0.70;96.20;;;;;;5055718;28;20478;-48
2022/01/14 03:22:28;;;;;;;34.50;16.30;;;0.80;95.70;;;;;;5034310;28;21196;-49
2022/01/14 03:27:41;;;;;;;29.27;15.90;;;0.80;95.50;;;;;;5036110;28;20640;-48
2022/01/14 03:30:08;;;;;;;26.37;15.93;;;0.80;95.80;;;;;;5061250;28;20490;-48
2022/01/14 03:32:35;;;;;;;33.90;17.40;;;0.80;95.70;;;;;;5055965;28;20478;-49
2022/01/14 03:35:02;;;;;;;32.70;17.37;;;0.90;95.30;;;;;;5052506;28;20482;-48
2022/01/14 03:37:29;;;;;;;29.13;15.43;;;0.90;95.60;;;;;;5054153;28;20489;-48
2022/01/14 03:39:57;;;;;;;28.40;15.50;;;0.90;95.60;;;;;;5073274;28;20474;-48
2022/01/14 03:42:24;;;;;;;28.53;16.23;;;0.90;95.50;;;;;;5062781;28;20513;-48
2022/01/14 03:44:51;;;;;;;27.80;15.20;;;0.90;95.70;;;;;;5049069;28;20496;-48
2022/01/14 03:47:18;;;;;;;27.00;15.53;;;0.80;95.50;;;;;;5063178;28;20510;-48
2022/01/14 03:49:44;;;;;;;30.30;17.00;;;0.80;95.00;;;;;;5052053;28;20485;-48
2022/01/14 03:52:11;;;;;;;30.00;16.30;;;0.80;95.30;;;;;;5058652;28;20590;-48
2022/01/14 03:54:38;;;;;;;37.07;16.70;;;0.80;95.20;;;;;;5090542;27;20480;-48
2022/01/14 03:57:07;;;;;;;34.13;16.27;;;0.50;94.90;;;;;;5059275;28;20481;-48
2022/01/14 03:59:34;;;;;;;29.30;15.07;;;0.50;95.30;;;;;;5061323;28;20504;-48
2022/01/14 04:02:00;;;;;;;35.57;16.70;;;0.40;95.60;;;;;;5077783;28;20504;-48
2022/01/14 04:04:27;;;;;;;32.63;16.87;;;0.30;95.70;;;;;;5089095;27;20759;-48
2022/01/14 04:06:54;;;;;;;26.93;14.03;;;0.30;95.90;;;;;;5085539;28;20491;-48
2022/01/14 04:09:21;;;;;;;25.33;16.10;;;0.30;95.70;;;;;;5058101;28;20496;-48
2022/01/14 04:11:47;;;;;;;27.23;14.90;;;0.30;94.90;;;;;;5078073;28;20534;-48
2022/01/14 04:17:00;;;;;;;29.37;16.20;;;0.00;95.30;;;;;;5076799;28;20503;-48
2022/01/14 04:19:28;;;;;;;40.03;17.27;;;0.00;95.60;;;;;;5065368;28;20536;-48
2022/01/14 04:21:55;;;;;;;29.67;15.93;;;-0.10;96.00;;;;;;5053976;28;20490;-48
2022/01/14 04:24:23;;;;;;;32.23;15.50;;;-0.10;95.90;;;;;;5051693;28;20496;-49
2022/01/14 04:26:50;;;;;;;32.40;15.97;;;-0.10;96.20;;;;;;5052464;28;20498;-48
2022/01/14 04:29:18;;;;;;;23.77;14.53;;;-0.10;96.50;;;;;;5051124;28;20517;-48
2022/01/14 04:31:45;;;;;;;34.47;16.57;;;0.20;96.40;;;;;;5052916;28;20470;-50
2022/01/14 04:34:14;;;;;;;30.10;15.10;;;0.20;96.60;;;;;;5055942;28;20481;-48
2022/01/14 04:36:41;;;;;;;27.17;14.07;;;0.30;96.40;;;;;;5063075;28;20567;-48
2022/01/14 04:39:07;;;;;;;29.87;15.33;;;0.40;96.00;;;;;;5059132;28;20494;-48
2022/01/14 04:41:34;;;;;;;25.77;15.43;;;0.40;96.20;;;;;;5067766;28;20484;-48
2022/01/14 04:44:02;;;;;;;31.00;15.63;;;0.50;96.00;;;;;;5063566;28;20478;-49
2022/01/14 04:46:49;;;;;;;35.00;17.30;;;0.50;95.40;;;;;;5059553;28;21066;-48
2022/01/14 04:49:16;;;;;;;22.10;14.30;;;0.40;95.50;;;;;;5054899;28;20491;-48
2022/01/14 04:51:43;;;;;;;31.43;15.97;;;0.40;95.10;;;;;;5062472;28;20497;-48
2022/01/14 04:54:10;;;;;;;26.27;15.13;;;0.40;95.40;;;;;;5054786;28;20487;-48
2022/01/14 04:56:37;;;;;;;26.93;15.37;;;0.40;95.60;;;;;;5064608;28;20480;-48
2022/01/14 04:59:04;;;;;;;31.30;14.97;;;0.40;95.30;;;;;;5054078;28;21929;-49
2022/01/14 05:01:32;;;;;;;28.13;16.13;;;0.50;95.30;;;;;;5063060;28;20908;-49
2022/01/14 05:03:59;;;;;;;32.43;15.23;;;0.50;95.20;;;;;;5062798;28;20498;-49
2022/01/14 05:06:27;;;;;;;35.40;15.73;;;0.50;95.20;;;;;;5060620;28;20486;-49
2022/01/14 05:08:54;;;;;;;27.87;16.07;;;0.50;95.40;;;;;;5088136;27;20495;-49
2022/01/14 05:11:24;;;;;;;29.47;16.50;;;0.50;95.40;;;;;;5053635;27;20503;-47
2022/01/14 05:13:51;;;;;;;30.40;15.30;;;0.50;95.50;;;;;;5052057;28;20490;-47
2022/01/14 05:16:18;;;;;;;29.93;16.00;;;0.50;95.50;;;;;;5064538;28;20543;-48
2022/01/14 05:18:47;;;;;;;28.17;15.40;;;0.50;95.30;;;;;;5062733;28;20485;-47
2022/01/14 05:21:14;;;;;;;29.23;16.73;;;0.50;95.50;;;;;;5068357;28;20492;-46
2022/01/14 05:23:42;;;;;;;32.43;16.67;;;0.50;95.60;;;;;;5055089;28;20882;-47
2022/01/14 05:26:09;;;;;;;32.23;16.60;;;0.50;95.10;;;;;;5053684;27;20488;-46
2022/01/14 05:28:36;;;;;;;30.27;15.27;;;0.50;95.40;;;;;;5057049;28;20489;-49
2022/01/14 05:31:02;;;;;;;31.93;15.17;;;0.50;95.00;;;;;;5077863;28;20604;-47
2022/01/14 05:33:31;;;;;;;30.20;16.53;;;0.50;94.80;;;;;;5048773;28;20480;-47
2022/01/14 05:35:59;;;;;;;26.27;16.00;;;0.40;95.00;;;;;;5079977;28;20497;-46
2022/01/14 05:38:26;;;;;;;27.50;14.50;;;0.50;95.20;;;;;;5080635;28;20480;-48
2022/01/14 05:41:00;;;;;;;29.30;15.80;;;0.50;95.20;;;;;;5067019;27;20739;-47
2022/01/14 05:43:26;;;;;;;32.60;15.63;;;0.50;95.40;;;;;;5075910;27;20562;-47
2022/01/14 05:45:53;;;;;;;29.00;15.20;;;0.50;95.30;;;;;;5082591;27;20484;-47
2022/01/14 05:48:20;;;;;;;36.23;16.47;;;0.50;94.80;;;;;;5084187;27;20548;-47
2022/01/14 05:50:47;;;;;;;25.00;14.40;;;0.50;95.10;;;;;;5085693;27;20479;-48
2022/01/14 05:53:15;;;;;;;27.50;14.33;;;0.50;95.10;;;;;;5077568;28;20477;-47
2022/01/14 05:55:41;;;;;;;27.07;15.33;;;0.50;94.70;;;;;;5077641;28;20512;-48
2022/01/14 05:58:08;;;;;;;31.87;16.50;;;0.50;94.90;;;;;;5073327;28;20489;-48
2022/01/14 06:00:35;;;;;;;27.27;16.23;;;0.50;95.00;;;;;;5078699;28;20510;-47
2022/01/14 06:03:01;;;;;;;34.70;17.43;;;0.50;94.90;;;;;;5078802;28;20476;-47
2022/01/14 06:05:28;;;;;;;28.63;15.60;;;0.50;95.10;;;;;;5076655;27;20555;-48
2022/01/14 06:07:55;;;;;;;30.90;17.60;;;0.50;95.10;;;;;;5091948;27;20479;-47
2022/01/14 06:10:23;;;;;;;31.67;17.83;;;0.50;94.70;;;;;;5070606;28;20506;-48
2022/01/14 06:12:50;;;;;;;31.20;16.97;;;0.50;94.70;;;;;;5085819;27;20491;-48
2022/01/14 06:15:17;;;;;;;33.37;16.57;;;0.50;94.90;;;;;;5077605;28;20912;-47
2022/01/14 06:17:44;;;;;;;28.70;15.13;;;0.40;94.70;;;;;;5074256;28;20514;-48
2022/01/14 06:20:12;;;;;;;27.60;15.30;;;0.50;95.00;;;;;;5090217;28;20481;-48
2022/01/14 06:22:38;;;;;;;32.00;16.60;;;0.40;95.00;;;;;;5044310;28;20497;-48
2022/01/14 06:25:06;;;;;;;32.97;17.07;;;0.40;94.40;;;;;;5059524;28;20538;-47
2022/01/14 06:27:34;;;;;;;29.83;15.90;;;0.40;94.60;;;;;;5063618;28;20486;-48
2022/01/14 06:30:02;;;;;;;28.80;16.73;;;0.40;94.60;;;;;;5059315;28;20481;-48
2022/01/14 06:32:28;;;;;;;35.60;14.90;;;0.10;94.10;;;;;;5055978;28;20517;-48
2022/01/14 06:34:55;;;;;;;31.33;16.30;;;0.10;94.20;;;;;;5053193;28;20532;-48
2022/01/14 06:37:22;;;;;;;30.00;17.40;;;-0.10;94.40;;;;;;5071716;28;20485;-48
2022/01/14 06:39:51;;;;;;;29.43;16.60;;;-0.50;94.60;;;;;;5083533;27;20476;-48
2022/01/14 06:42:17;;;;;;;29.47;14.43;;;-0.50;94.90;;;;;;5086844;28;20951;-48
2022/01/14 06:44:46;;;;;;;26.63;13.40;;;-0.60;95.30;;;;;;5069671;28;20519;-48
2022/01/14 06:47:12;;;;;;;28.77;12.33;;;-0.80;95.40;;;;;;5081286;28;20477;-48
2022/01/14 06:49:39;;;;;;;21.17;12.60;;;-0.80;95.70;;;;;;5074855;28;20480;-48
2022/01/14 06:52:06;;;;;;;34.17;16.53;;;-0.80;96.00;;;;;;5078283;28;20496;-48
2022/01/14 06:54:33;;;;;;;28.50;14.77;;;-0.80;96.20;;;;;;5072779;28;21002;-47
2022/01/14 06:56:59;;;;;;;30.00;17.43;;;-0.80;96.20;;;;;;5066823;28;20490;-47
2022/01/14 06:59:26;;;;;;;26.03;13.53;;;-0.80;96.10;;;;;;5070470;28;20493;-48
2022/01/14 07:01:54;;;;;;;30.70;15.87;;;-0.60;96.00;;;;;;5078348;27;20572;-48
2022/01/14 07:04:21;;;;;;;28.10;16.40;;;-0.50;95.80;;;;;;5074385;28;20476;-55
2022/01/14 07:06:48;;;;;;;26.10;16.23;;;-0.40;95.70;;;;;;5078859;27;20586;-48
2022/01/14 07:09:15;;;;;;;29.27;13.97;;;-0.30;95.70;;;;;;5068787;28;20862;-48
2022/01/14 07:11:42;;;;;;;25.57;14.93;;;-0.20;96.00;;;;;;5059398;28;20563;-48
2022/01/14 07:14:09;;;;;;;29.53;16.07;;;-0.20;95.50;;;;;;5086793;28;20483;-48
2022/01/14 07:16:36;;;;;;;28.10;14.97;;;-0.10;95.70;;;;;;5073068;28;20495;-47
2022/01/14 07:19:04;;;;;;;30.30;15.20;;;-0.10;95.90;;;;;;5074178;28;20894;-47
2022/01/14 07:21:33;;;;;;;26.90;14.27;;;0.00;95.90;;;;;;5065658;28;20490;-48
2022/01/14 07:24:00;;;;;;;27.47;15.17;;;0.10;95.40;;;;;;5061534;27;20481;-48
2022/01/14 07:26:26;;;;;;;26.53;15.40;;;0.10;95.10;;;;;;5106626;27;20480;-53
2022/01/14 07:28:53;;;;;;;26.43;15.50;;;0.10;95.20;;;;;;5063522;27;20485;-48
2022/01/14 07:31:20;;;;;;;55.23;21.70;;;0.10;94.90;;;;;;5053529;28;20472;-48
2022/01/14 07:33:46;;;;;;;40.50;17.40;;;0.10;95.20;;;;;;5068719;28;20512;-48
2022/01/14 07:36:15;;;;;;;37.67;19.77;;;0.10;95.20;;;;;;5057738;28;20497;-48
2022/01/14 07:38:42;;;;;;;36.17;17.57;;;0.20;95.00;;;;;;5042380;28;20490;-48
2022/01/14 07:41:08;;;;;;;42.20;20.50;;;0.20;95.20;;;;;;5073511;28;20529;-48
2022/01/14 07:43:36;;;;;;;41.37;22.40;;;0.20;95.10;;;;;;5058219;28;20548;-48
2022/01/14 07:46:03;;;;;;;46.50;24.30;;;0.30;95.00;;;;;;5046972;28;20513;-48
2022/01/14 07:48:30;;;;;;;29.40;18.00;;;0.30;95.30;;;;;;5050732;28;20494;-48
2022/01/14 07:50:56;;;;;;;27.87;16.87;;;0.20;94.30;;;;;;5056960;28;20487;-48
2022/01/14 07:53:24;;;;;;;33.43;17.57;;;0.10;94.20;;;;;;5055681;28;20531;-48
2022/01/14 07:55:51;;;;;;;32.57;17.70;;;0.10;94.20;;;;;;5058520;28;20803;-49
2022/01/14 07:58:18;;;;;;;28.77;15.73;;;0.10;94.80;;;;;;5058185;28;20489;-48
2022/01/14 08:00:45;;;;;;;31.77;16.97;;;0.00;94.30;;;;;;5054142;28;20497;-48
2022/01/14 08:03:11;;;;;;;35.93;17.80;;;0.00;94.50;;;;;;5047301;28;20491;-48
2022/01/14 08:05:38;;;;;;;27.70;15.77;;;0.00;94.70;;;;;;5047148;28;20488;-47
2022/01/14 08:08:07;;;;;;;48.67;18.93;;;-0.10;94.60;;;;;;5064098;28;21022;-48
2022/01/14 08:10:36;;;;;;;31.37;16.00;;;-0.10;94.90;;;;;;5045941;28;20586;-48
2022/01/14 08:13:03;;;;;;;27.67;16.30;;;0.00;94.80;;;;;;5070720;27;20470;-48
2022/01/14 08:15:31;;;;;;;27.70;16.27;;;-0.10;95.00;;;;;;5026684;28;20886;-48
2022/01/14 08:17:59;;;;;;;33.07;17.80;;;0.00;94.80;;;;;;5059439;28;20502;-48
2022/01/14 08:20:26;;;;;;;31.37;15.63;;;-0.20;95.10;;;;;;5038724;28;20474;-48
2022/01/14 08:22:53;;;;;;;31.43;17.20;;;-0.20;95.40;;;;;;5050056;28;20491;-48
2022/01/14 08:25:20;;;;;;;29.87;16.00;;;-0.10;95.90;;;;;;5044648;28;20489;-48
2022/01/14 08:27:48;;;;;;;35.43;16.47;;;0.60;96.30;;;;;;5057643;28;20481;-47
2022/01/14 08:30:14;;;;;;;36.50;20.80;;;0.60;96.60;;;;;;5050475;28;20482;-48
2022/01/14 08:32:42;;;;;;;47.80;22.90;;;1.50;96.70;;;;;;5049309;28;20971;-48
2022/01/14 08:35:09;;;;;;;34.13;18.37;;;4.00;96.10;;;;;;5038704;28;20489;-48
2022/01/14 08:37:37;;;;;;;25.40;17.33;;;4.00;96.20;;;;;;5036056;28;20494;-48
2022/01/14 08:40:05;;;;;;;31.70;17.43;;;5.30;96.20;;;;;;5062308;28;20492;-48
2022/01/14 08:42:32;;;;;;;25.67;15.80;;;7.40;93.20;;;;;;5067260;28;20488;-48
2022/01/14 08:45:00;;;;;;;26.00;16.20;;;7.50;93.50;;;;;;5056492;28;20927;-48
2022/01/14 08:47:27;;;;;;;25.40;17.80;;;8.50;91.80;;;;;;5051382;28;20479;-49
2022/01/14 08:49:53;;;;;;;22.97;16.97;;;9.40;90.60;;;;;;5048060;28;20496;-48
2022/01/14 08:52:20;;;;;;;29.87;17.53;;;10.10;89.50;;;;;;5063792;27;21237;-49
2022/01/14 08:54:47;;;;;;;24.87;16.10;;;10.70;87.90;;;;;;5038861;27;20484;-48
2022/01/14 08:57:14;;;;;;;32.23;17.40;;;11.20;86.60;;;;;;5077196;27;20484;-48
2022/01/14 08:59:41;;;;;;;25.30;18.23;;;11.30;83.50;;;;;;5036186;28;20487;-49
2022/01/14 09:02:09;;;;;;;25.67;17.00;;;11.50;82.70;;;;;;5033637;28;20551;-48
2022/01/14 09:04:36;;;;;;;24.57;17.93;;;11.70;82.40;;;;;;5049844;28;21025;-49
2022/01/14 09:07:03;;;;;;;27.87;18.20;;;11.60;79.20;;;;;;5050700;28;20487;-48
2022/01/14 09:09:29;;;;;;;27.50;19.77;;;11.40;79.40;;;;;;5047633;28;20529;-48
2022/01/14 09:11:56;;;;;;;32.27;20.03;;;11.20;79.10;;;;;;5049721;28;20549;-48
2022/01/14 09:14:25;;;;;;;26.17;18.03;;;10.90;79.60;;;;;;5049742;28;20519;-48
2022/01/14 09:16:51;;;;;;;31.37;20.80;;;10.50;81.10;;;;;;5044166;28;20471;-48
2022/01/14 09:19:20;;;;;;;26.13;19.37;;;10.40;82.60;;;;;;5034563;28;20486;-48
2022/01/14 09:21:47;;;;;;;32.03;20.57;;;10.40;83.90;;;;;;5074490;27;20478;-48
2022/01/14 09:24:14;;;;;;;27.97;19.27;;;10.30;81.80;;;;;;5055432;27;21711;-47
2022/01/14 09:26:41;;;;;;;35.93;21.00;;;10.20;83.10;;;;;;5050380;28;20711;-47
2022/01/14 09:29:08;;;;;;;27.07;18.63;;;10.10;85.30;;;;;;5029576;28;20493;-47
2022/01/14 09:31:35;;;;;;;27.10;21.37;;;9.80;86.80;;;;;;5045676;28;20498;-47
2022/01/14 09:34:02;;;;;;;31.53;18.90;;;9.50;86.90;;;;;;5063120;28;20484;-47
2022/01/14 09:36:30;;;;;;;31.93;20.00;;;9.40;87.70;;;;;;5061762;28;20492;-47
2022/01/14 09:38:58;;;;;;;27.53;19.77;;;9.20;87.10;;;;;;5049237;28;20585;-47
2022/01/14 09:41:24;;;;;;;27.13;18.77;;;8.70;86.60;;;;;;5042739;28;20473;-47
2022/01/14 09:43:52;;;;;;;32.03;18.80;;;8.30;85.80;;;;;;5045786;28;21148;-47
2022/01/14 09:46:18;;;;;;;32.43;20.07;;;8.10;87.40;;;;;;5047955;28;20479;-47
2022/01/14 09:48:49;;;;;;;30.53;19.97;;;7.40;90.10;;;;;;5047404;28;20480;-46
2022/01/14 09:51:16;;;;;;;29.40;17.97;;;7.30;90.30;;;;;;5044549;28;20487;-47
2022/01/14 09:53:44;;;;;;;33.40;19.67;;;7.20;91.30;;;;;;5059201;28;20506;-47
2022/01/14 09:56:13;;;;;;;32.57;20.43;;;7.30;92.30;;;;;;5039985;28;20505;-47
2022/01/14 09:58:46;;;;;;;31.97;18.63;;;7.20;92.30;;;;;;5057337;28;20479;-46
2022/01/14 10:01:15;;;;;;;30.00;19.13;;;7.30;91.40;;;;;;5055408;28;20468;-47
2022/01/14 10:03:51;;;;;;;24.80;17.63;;;7.50;92.80;;;;;;5045777;28;20476;-46
2022/01/14 10:06:38;;;;;;;27.43;19.20;;;7.60;92.00;;;;;;5045576;28;20487;-47
2022/01/14 10:09:09;;;;;;;28.70;19.03;;;7.70;92.20;;;;;;5047652;28;21009;-46
2022/01/14 10:11:38;;;;;;;36.47;20.30;;;7.60;91.90;;;;;;5055476;27;20470;-47
2022/01/14 10:14:09;;;;;;;34.73;19.83;;;7.60;91.70;;;;;;5085420;27;21061;-46
2022/01/14 10:16:40;;;;;;;34.03;20.43;;;7.50;91.30;;;;;;5055378;28;20490;-46
2022/01/14 10:19:18;;;;;;;30.30;20.20;;;7.60;92.40;;;;;;5064023;28;20476;-46
2022/01/14 10:21:45;;;;;;;39.00;22.27;;;7.90;92.60;;;;;;5054945;28;20542;-50
2022/01/14 10:24:14;;;;;;;28.97;20.30;;;7.80;91.80;;;;;;5065876;28;20473;-46
2022/01/14 10:26:49;;;;;;;36.20;22.83;;;7.70;92.30;;;;;;5023189;28;20553;-47
2022/01/14 10:29:27;;;;;;;31.97;20.50;;;7.60;92.80;;;;;;5069735;28;20491;-46
2022/01/14 10:31:54;;;;;;;36.33;21.70;;;7.50;92.50;;;;;;5051532;28;20998;-47
2022/01/14 10:34:21;;;;;;;35.53;21.43;;;7.40;92.70;;;;;;5067091;28;20587;-46
2022/01/14 10:36:50;;;;;;;34.93;21.27;;;7.50;93.00;;;;;;5066249;28;20510;-46
2022/01/14 10:39:26;;;;;;;34.87;21.50;;;7.50;92.90;;;;;;5067863;28;20471;-46
2022/01/14 10:41:55;;;;;;;29.50;20.57;;;7.50;93.20;;;;;;5044943;28;20487;-46
2022/01/14 10:44:28;;;;;;;28.73;20.13;;;7.80;93.80;;;;;;5064141;28;20478;-46
2022/01/14 10:47:14;;;;;;;35.27;21.23;;;7.90;93.30;;;;;;5064986;27;20480;-47
2022/01/14 10:49:43;;;;;;;33.57;20.03;;;8.00;93.50;;;;;;5067919;28;20471;-46
2022/01/14 10:52:11;;;;;;;31.50;20.87;;;8.20;93.90;;;;;;5068448;28;20502;-46
2022/01/14 10:54:41;;;;;;;27.30;18.50;;;8.40;93.60;;;;;;5091619;27;20754;-47
2022/01/14 10:57:17;;;;;;;34.90;20.23;;;8.90;92.40;;;;;;5060499;28;20577;-47
2022/01/14 10:59:45;;;;;;;30.50;20.53;;;9.10;92.50;;;;;;5077571;27;20480;-47
2022/01/14 11:02:37;;;;;;;29.67;20.57;;;9.20;92.90;;;;;;5075399;28;20854;-47
2022/01/14 11:05:07;;;;;;;31.27;21.70;;;9.40;93.40;;;;;;5073935;27;20483;-47
2022/01/14 11:07:34;;;;;;;31.47;20.73;;;9.60;93.40;;;;;;5065030;28;20879;-47
2022/01/14 11:10:16;;;;;;;32.60;19.23;;;9.80;92.50;;;;;;5063666;28;20478;-46
2022/01/14 11:12:43;;;;;;;32.97;21.33;;;9.80;92.00;;;;;;5043841;28;20472;-47
2022/01/14 11:15:11;;;;;;;33.63;20.70;;;9.90;91.90;;;;;;5067998;28;20481;-46
2022/01/14 11:17:39;;;;;;;32.00;20.37;;;10.00;92.10;;;;;;5066069;28;20489;-47
2022/01/14 11:20:09;;;;;;;26.97;18.03;;;10.10;91.40;;;;;;5067193;27;20794;-47
2022/01/14 11:25:22;;;;;;;27.97;18.67;;;10.70;91.90;;;;;;5049435;28;20534;-47
2022/01/14 11:27:52;;;;;;;27.67;17.80;;;10.80;92.10;;;;;;5080596;27;20987;-47
2022/01/14 11:30:19;;;;;;;23.90;16.17;;;11.00;92.00;;;;;;5065977;28;21607;-47
2022/01/14 11:32:54;;;;;;;31.97;19.70;;;10.90;89.20;;;;;;5078546;27;20506;-47
2022/01/14 11:35:21;;;;;;;24.53;17.83;;;10.90;90.10;;;;;;5063721;27;20488;-47
2022/01/14 11:37:48;;;;;;;25.07;17.43;;;11.00;91.60;;;;;;5064953;28;20492;-47
2022/01/14 11:40:15;;;;;;;24.70;18.30;;;11.10;91.40;;;;;;5056043;28;20496;-47
2022/01/14 11:42:45;;;;;;;23.37;16.83;;;11.40;91.70;;;;;;5083598;27;20477;-47
2022/01/14 11:45:13;;;;;;;24.07;17.03;;;11.80;92.30;;;;;;5066718;28;20934;-47
2022/01/14 11:47:59;;;;;;;25.00;18.30;;;12.00;91.40;;;;;;5079332;27;20479;-47
2022/01/14 11:50:47;;;;;;;26.60;18.10;;;12.60;91.50;;;;;;5063016;27;20484;-47
2022/01/14 11:53:33;;;;;;;25.60;16.67;;;12.60;91.70;;;;;;5063782;28;20469;-47
2022/01/14 11:56:00;;;;;;;23.53;17.00;;;12.80;88.50;;;;;;5051062;28;20487;-48
2022/01/14 11:58:28;;;;;;;24.50;17.40;;;12.70;88.70;;;;;;5054031;28;20513;-48
2022/01/14 12:00:55;;;;;;;20.83;14.57;;;12.50;86.90;;;;;;5056248;28;20481;-48
2022/01/14 12:03:29;;;;;;;20.47;14.77;;;12.60;90.50;;;;;;5063603;28;20543;-48
2022/01/14 12:05:58;;;;;;;21.03;14.10;;;12.50;88.70;;;;;;5066967;28;20472;-48
2022/01/14 12:08:30;;;;;;;24.70;16.47;;;12.80;88.50;;;;;;5057601;28;20903;-48
2022/01/14 12:10:59;;;;;;;20.23;15.17;;;12.70;87.40;;;;;;5093971;28;20487;-48
2022/01/14 12:13:41;;;;;;;19.20;15.43;;;12.60;87.40;;;;;;5066315;27;20479;-48
2022/01/14 12:16:11;;;;;;;20.70;13.60;;;12.40;88.30;;;;;;5071568;27;20473;-47
2022/01/14 12:19:21;;;;;;;19.70;13.03;;;12.20;88.80;;;;;;5063842;28;20478;-47
2022/01/14 12:22:06;;;;;;;16.50;11.60;;;12.50;90.60;;;;;;5062429;27;20489;-48
2022/01/14 12:24:40;;;;;;;17.90;12.27;;;12.60;90.10;;;;;;5078003;27;20481;-47
2022/01/14 12:27:44;;;;;;;18.63;12.80;;;13.20;90.30;;;;;;5053923;28;20480;-47
2022/01/14 12:30:24;;;;;;;16.90;11.83;;;13.40;86.60;;;;;;5062059;27;21481;-48
2022/01/14 12:32:54;;;;;;;19.30;15.27;;;13.70;91.00;;;;;;5083005;27;20480;-48
2022/01/14 12:35:33;;;;;;;18.80;11.70;;;14.20;90.40;;;;;;5063332;28;20660;-47
2022/01/14 12:38:01;;;;;;;15.97;12.33;;;14.40;90.20;;;;;;5063305;28;20545;-48
2022/01/14 12:40:31;;;;;;;16.00;12.20;;;14.70;90.00;;;;;;5060791;28;20488;-47
2022/01/14 12:43:00;;;;;;;17.93;13.20;;;15.00;89.80;;;;;;5057446;27;20494;-48
2022/01/14 12:45:40;;;;;;;15.60;13.00;;;15.20;86.80;;;;;;5069352;27;20481;-48
2022/01/14 12:48:28;;;;;;;19.67;13.37;;;15.10;85.80;;;;;;5072756;27;20553;-47
2022/01/14 12:51:04;;;;;;;25.03;14.03;;;15.10;86.40;;;;;;5067353;27;20477;-48
2022/01/14 12:53:30;;;;;;;18.73;13.27;;;15.00;86.90;;;;;;5067735;28;20569;-47
2022/01/14 12:56:00;;;;;;;15.30;13.03;;;15.00;87.40;;;;;;5057627;28;20969;-48
2022/01/14 12:58:27;;;;;;;19.80;13.63;;;14.80;86.90;;;;;;5060131;28;20907;-48
2022/01/14 13:01:07;;;;;;;18.67;11.70;;;14.50;84.40;;;;;;5061910;27;20468;-49